Time,TemperatureF,DewpointF,PressureIn,WindDirection,WindDirectionDegrees,WindSpeedMPH,WindSpeedGustMPH,Humidity,HourlyPrecipIn,Conditions,Clouds,dailyrainin,SoftwareType,DateUTC
2013-02-21 00:00:00,31.8,16.6,30.10,NNE,17,1.1,0.0,53,0.00,CLR,SCT,0.00,WeatherDisplay:10.37,2013-02-21 05:00:00,
2013-02-21 00:05:00,31.9,16.7,30.10,North,354,0.0,0.0,53,0.00,CLR,SCT,0.00,WeatherDisplay:10.37,2013-02-21 05:05:00,
2013-02-21 00:10:00,31.9,16.7,30.09,NW,308,6.9,6.9,53,0.00,CLR,SCT,0.00,WeatherDisplay:10.37,2013-02-21 05:10:00,
2013-02-21 00:15:00,31.8,16.6,30.09,NNE,31,0.0,0.0,53,0.00,CLR,SCT,0.00,WeatherDisplay:10.37,2013-02-21 05:15:00,
2013-02-21 00:20:00,31.8,16.6,30.09,NE,56,4.6,4.6,53,0.00,CLR,SCT,0.00,WeatherDisplay:10.37,2013-02-21 05:20:00,
2013-02-21 00:25:00,31.8,16.6,30.10,East,80,9.2,9.2,53,0.00,CLR,SCT,0.00,WeatherDisplay:10.37,2013-02-21 05:25:00,
2013-02-21 00:30:00,31.7,16.5,30.09,NE,42,6.9,6.9,53,0.00,CLR,SCT,0.00,WeatherDisplay:10.37,2013-02-21 05:30:00,
2013-02-21 00:35:00,31.6,16.4,30.09,NNE,28,0.0,0.0,53,0.00,CLR,SCT,0.00,WeatherDisplay:10.37,2013-02-21 05:35:00,
2013-02-21 00:40:00,31.7,16.9,30.09,NNW,335,3.5,3.5,54,0.00,CLR,SCT,0.00,WeatherDisplay:10.37,2013-02-21 05:40:00,
2013-02-21 00:45:00,31.5,16.3,30.09,North,10,4.6,4.6,53,0.00,CLR,SCT,0.00,WeatherDisplay:10.37,2013-02-21 05:45:00,
2013-02-21 00:51:00,31.6,16.8,30.09,ENE,75,4.6,4.6,54,0.00,CLR,SCT,0.00,WeatherDisplay:10.37,2013-02-21 05:51:00,
2013-02-21 00:56:00,31.5,16.3,30.09,NE,37,3.5,3.5,53,0.00,CLR,SCT,0.00,WeatherDisplay:10.37,2013-02-21 05:56:00,
2013-02-21 01:01:00,31.4,16.2,30.09,NE,49,3.5,3.5,53,0.00,CLR,SCT,0.00,WeatherDisplay:10.37,2013-02-21 06:01:00,
2013-02-21 01:06:00,31.3,16.6,30.09,ENE,76,4.6,4.6,54,0.00,CLR,SCT,0.00,WeatherDisplay:10.37,2013-02-21 06:06:00,
2013-02-21 01:11:00,31.1,16.4,30.10,NNE,17,2.6,2.6,54,0.00,CLR,SCT,0.00,WeatherDisplay:10.37,2013-02-21 06:11:00,
2013-02-21 01:16:00,31.1,16.4,30.09,North,357,9.2,9.2,54,0.00,CLR,SCT,0.00,WeatherDisplay:10.37,2013-02-21 06:16:00,
2013-02-21 01:21:00,31.0,16.3,30.09,NE,52,2.3,2.3,54,0.00,CLR,SCT,0.00,WeatherDisplay:10.37,2013-02-21 06:21:00,
2013-02-21 01:26:00,30.8,16.1,30.09,NE,48,1.1,1.1,54,0.00,CLR,SCT,0.00,WeatherDisplay:10.37,2013-02-21 06:26:00,
2013-02-21 01:31:00,30.6,15.9,30.09,NNE,32,2.3,2.3,54,0.00,CLR,SCT,0.00,WeatherDisplay:10.37,2013-02-21 06:31:00,
2013-02-21 01:36:00,30.5,15.8,30.09,NE,41,4.6,4.6,54,0.00,CLR,SCT,0.00,WeatherDisplay:10.37,2013-02-21 06:36:00,
2013-02-21 01:41:00,30.4,16.1,30.09,ENE,69,6.9,6.9,55,0.00,CLR,SCT,0.00,WeatherDisplay:10.37,2013-02-21 06:41:00,
2013-02-21 01:46:00,30.3,16.0,30.09,ENE,64,4.6,4.6,55,0.00,CLR,SCT,0.00,WeatherDisplay:10.37,2013-02-21 06:46:00,
2013-02-21 01:51:00,30.2,16.0,30.09,NE,44,5.8,5.8,55,0.00,CLR,SCT,0.00,WeatherDisplay:10.37,2013-02-21 06:51:00,
2013-02-21 01:56:00,29.9,15.7,30.08,ENE,73,4.6,4.6,55,0.00,CLR,SCT,0.00,WeatherDisplay:10.37,2013-02-21 06:56:00,
2013-02-21 02:01:00,29.9,15.7,30.09,ENE,66,3.5,3.5,55,0.00,CLR,SCT,0.00,WeatherDisplay:10.37,2013-02-21 07:01:00,
2013-02-21 02:06:00,29.8,15.6,30.08,ENE,59,2.3,2.3,55,0.00,CLR,SCT,0.00,WeatherDisplay:10.37,2013-02-21 07:06:00,
2013-02-21 02:11:00,29.6,15.4,30.08,ENE,71,3.7,3.7,55,0.00,CLR,SCT,0.00,WeatherDisplay:10.37,2013-02-21 07:11:00,
2013-02-21 02:16:00,29.5,15.7,30.08,NE,51,3.5,3.5,56,0.00,CLR,SCT,0.00,WeatherDisplay:10.37,2013-02-21 07:16:00,
2013-02-21 02:21:00,29.5,15.7,30.09,NNE,31,4.6,4.6,56,0.00,CLR,SCT,0.00,WeatherDisplay:10.37,2013-02-21 07:21:00,
2013-02-21 02:26:00,29.4,15.6,30.09,NNW,344,8.1,8.1,56,0.00,CLR,SCT,0.00,WeatherDisplay:10.37,2013-02-21 07:26:00,
2013-02-21 02:31:00,29.4,15.6,30.09,NNW,347,8.1,8.1,56,0.00,CLR,SCT,0.00,WeatherDisplay:10.37,2013-02-21 07:31:00,
2013-02-21 02:36:00,29.5,15.7,30.09,NE,52,0.0,0.0,56,0.00,CLR,SCT,0.00,WeatherDisplay:10.37,2013-02-21 07:36:00,
2013-02-21 02:41:00,29.6,15.8,30.09,East,86,8.1,8.1,56,0.00,CLR,SCT,0.00,WeatherDisplay:10.37,2013-02-21 07:41:00,
2013-02-21 02:46:00,29.6,15.8,30.09,ENE,76,4.1,4.1,56,0.00,CLR,SCT,0.00,WeatherDisplay:10.37,2013-02-21 07:46:00,
2013-02-21 02:51:00,29.4,15.6,30.09,ENE,76,4.8,4.8,56,0.00,CLR,SCT,0.00,WeatherDisplay:10.37,2013-02-21 07:51:00,
2013-02-21 02:58:00,29.4,15.6,30.09,NNE,23,4.6,4.6,56,0.00,CLR,SCT,0.00,WeatherDisplay:10.37,2013-02-21 07:58:00,
2013-02-21 03:03:00,29.3,15.5,30.09,North,7,6.9,6.9,56,0.00,CLR,SCT,0.00,WeatherDisplay:10.37,2013-02-21 08:03:00,
2013-02-21 03:08:00,29.3,15.5,30.09,NNE,16,1.1,1.1,56,0.00,CLR,SCT,0.00,WeatherDisplay:10.37,2013-02-21 08:08:00,
2013-02-21 03:13:00,29.3,15.5,30.09,NE,49,8.1,8.1,56,0.00,CLR,SCT,0.00,WeatherDisplay:10.37,2013-02-21 08:13:00,
2013-02-21 03:18:00,29.2,15.4,30.08,ENE,62,1.1,1.1,56,0.00,CLR,SCT,0.00,WeatherDisplay:10.37,2013-02-21 08:18:00,
2013-02-21 03:23:00,29.1,15.3,30.08,NNW,347,1.1,1.1,56,0.00,CLR,SCT,0.00,WeatherDisplay:10.37,2013-02-21 08:23:00,
2013-02-21 03:28:00,29.1,15.3,30.08,NNW,346,5.8,5.8,56,0.00,CLR,SCT,0.00,WeatherDisplay:10.37,2013-02-21 08:28:00,
2013-02-21 03:33:00,29.1,15.3,30.08,NNE,24,2.7,2.7,56,0.00,CLR,SCT,0.00,WeatherDisplay:10.37,2013-02-21 08:33:00,
2013-02-21 03:38:00,29.1,15.7,30.08,WNW,299,6.8,6.8,57,0.00,CLR,SCT,0.00,WeatherDisplay:10.37,2013-02-21 08:38:00,
2013-02-21 03:43:00,29.1,15.7,30.08,ENE,65,1.1,1.1,57,0.00,CLR,SCT,0.00,WeatherDisplay:10.37,2013-02-21 08:43:00,
2013-02-21 03:48:00,29.0,15.7,30.08,NNE,13,3.5,3.5,57,0.00,CLR,SCT,0.00,WeatherDisplay:10.37,2013-02-21 08:48:00,
2013-02-21 03:53:00,28.9,15.6,30.08,NW,316,5.8,5.8,57,0.00,CLR,SCT,0.00,WeatherDisplay:10.37,2013-02-21 08:53:00,
2013-02-21 03:58:00,28.9,15.6,30.08,NE,47,3.5,3.5,57,0.00,CLR,SCT,0.00,WeatherDisplay:10.37,2013-02-21 08:58:00,
2013-02-21 04:03:00,28.8,15.5,30.08,ENE,73,4.6,4.6,57,0.00,CLR,SCT,0.00,WeatherDisplay:10.37,2013-02-21 09:03:00,
2013-02-21 04:08:00,28.5,15.2,30.08,WNW,301,5.8,5.8,57,0.00,CLR,SCT,0.00,WeatherDisplay:10.37,2013-02-21 09:08:00,
2013-02-21 04:13:00,28.3,15.4,30.08,ENE,69,4.6,4.6,58,0.00,CLR,SCT,0.00,WeatherDisplay:10.37,2013-02-21 09:13:00,
2013-02-21 04:18:00,28.2,15.3,30.08,NE,37,4.6,4.6,58,0.00,CLR,SCT,0.00,WeatherDisplay:10.37,2013-02-21 09:18:00,
2013-02-21 04:23:00,28.1,15.2,30.08,North,359,3.5,3.5,58,0.00,CLR,SCT,0.00,WeatherDisplay:10.37,2013-02-21 09:23:00,
2013-02-21 04:28:00,28.1,15.2,30.08,NE,52,4.6,4.6,58,0.00,CLR,SCT,0.00,WeatherDisplay:10.37,2013-02-21 09:28:00,
2013-02-21 04:33:00,28.1,15.2,30.08,North,4,0.0,0.1,58,0.00,CLR,SCT,0.00,WeatherDisplay:10.37,2013-02-21 09:33:00,
2013-02-21 04:38:00,28.0,15.1,30.08,NNW,343,4.6,4.6,58,0.00,CLR,SCT,0.00,WeatherDisplay:10.37,2013-02-21 09:38:00,
2013-02-21 04:43:00,27.9,15.0,30.08,NE,40,3.3,3.3,58,0.00,CLR,SCT,0.00,WeatherDisplay:10.37,2013-02-21 09:43:00,
2013-02-21 04:48:00,27.8,15.3,30.08,NW,320,5.8,5.8,59,0.00,CLR,SCT,0.00,WeatherDisplay:10.37,2013-02-21 09:48:00,
2013-02-21 04:53:00,27.7,15.2,30.09,NE,37,2.3,2.3,59,0.00,CLR,SCT,0.00,WeatherDisplay:10.37,2013-02-21 09:53:00,
2013-02-21 04:58:00,27.6,15.1,30.09,NNE,25,8.1,8.1,59,0.00,CLR,SCT,0.00,WeatherDisplay:10.37,2013-02-21 09:58:00,
2013-02-21 05:03:00,27.6,15.1,30.09,NE,56,4.8,4.8,59,0.00,CLR,SCT,0.00,WeatherDisplay:10.37,2013-02-21 10:03:00,
2013-02-21 05:08:00,27.7,15.2,30.09,NNE,18,5.8,5.8,59,0.00,CLR,SCT,0.00,WeatherDisplay:10.37,2013-02-21 10:08:00,
2013-02-21 05:13:00,27.6,15.1,30.10,NE,37,4.6,4.6,59,0.00,CLR,SCT,0.00,WeatherDisplay:10.37,2013-02-21 10:13:00,
2013-02-21 05:18:00,27.6,15.1,30.10,NE,56,5.8,5.8,59,0.00,CLR,SCT,0.00,WeatherDisplay:10.37,2013-02-21 10:18:00,
2013-02-21 05:23:00,27.5,15.0,30.10,NE,55,6.9,6.9,59,0.00,CLR,SCT,0.00,WeatherDisplay:10.37,2013-02-21 10:23:00,
2013-02-21 05:28:00,27.4,14.9,30.10,NE,48,6.9,6.9,59,0.00,CLR,SCT,0.00,WeatherDisplay:10.37,2013-02-21 10:28:00,
2013-02-21 05:33:00,27.3,14.8,30.10,East,82,8.1,8.1,59,0.00,CLR,SCT,0.00,WeatherDisplay:10.37,2013-02-21 10:33:00,
2013-02-21 05:38:00,27.3,14.8,30.10,NNW,344,8.1,8.1,59,0.00,CLR,SCT,0.00,WeatherDisplay:10.37,2013-02-21 10:38:00,
2013-02-21 05:43:00,27.2,15.1,30.10,ENE,62,6.7,6.7,60,0.00,CLR,SCT,0.00,WeatherDisplay:10.37,2013-02-21 10:43:00,
2013-02-21 05:48:00,27.2,15.1,30.10,NNW,347,8.1,8.1,60,0.00,CLR,SCT,0.00,WeatherDisplay:10.37,2013-02-21 10:48:00,
2013-02-21 05:53:00,27.1,15.0,30.10,NE,38,9.2,9.2,60,0.00,CLR,SCT,0.00,WeatherDisplay:10.37,2013-02-21 10:53:00,
2013-02-21 05:58:00,27.2,15.1,30.10,NW,325,8.1,8.1,60,0.00,CLR,SCT,0.00,WeatherDisplay:10.37,2013-02-21 10:58:00,
2013-02-21 06:03:00,27.1,15.0,30.10,North,350,9.0,9.0,60,0.00,CLR,SCT,0.00,WeatherDisplay:10.37,2013-02-21 11:03:00,
2013-02-21 06:08:00,27.0,14.9,30.11,North,350,5.8,5.8,60,0.00,CLR,SCT,0.00,WeatherDisplay:10.37,2013-02-21 11:08:00,
2013-02-21 06:14:00,26.9,14.9,30.11,ENE,64,5.8,5.8,60,0.00,CLR,SCT,0.00,WeatherDisplay:10.37,2013-02-21 11:14:00,
2013-02-21 06:19:00,26.9,14.9,30.11,ENE,62,6.9,6.9,60,0.00,CLR,SCT,0.00,WeatherDisplay:10.37,2013-02-21 11:19:00,
2013-02-21 06:24:00,26.8,14.8,30.11,ENE,66,8.1,8.1,60,0.00,CLR,SCT,0.00,WeatherDisplay:10.37,2013-02-21 11:24:00,
2013-02-21 06:29:00,26.8,14.8,30.11,NNE,28,6.9,6.9,60,0.00,CLR,SCT,0.00,WeatherDisplay:10.37,2013-02-21 11:29:00,
2013-02-21 06:34:00,26.9,14.9,30.11,NE,44,6.9,6.9,60,0.00,CLR,SCT,0.00,WeatherDisplay:10.37,2013-02-21 11:34:00,
2013-02-21 06:39:00,26.8,14.8,30.11,NE,44,6.9,6.9,60,0.00,CLR,SCT,0.00,WeatherDisplay:10.37,2013-02-21 11:39:00,
2013-02-21 06:44:00,26.7,14.7,30.11,North,356,6.9,6.9,60,0.00,CLR,SCT,0.00,WeatherDisplay:10.37,2013-02-21 11:44:00,
2013-02-21 06:49:00,26.7,14.7,30.11,NW,319,9.2,9.2,60,0.00,CLR,SCT,0.00,WeatherDisplay:10.37,2013-02-21 11:49:00,
2013-02-21 06:54:00,26.6,14.6,30.12,NE,54,5.8,5.8,60,0.00,CLR,SCT,0.00,WeatherDisplay:10.37,2013-02-21 11:54:00,
2013-02-21 06:59:00,26.7,14.7,30.12,NNW,336,5.8,5.8,60,0.00,CLR,SCT,0.00,WeatherDisplay:10.37,2013-02-21 11:59:00,
2013-02-21 07:04:00,26.8,14.8,30.12,ENE,76,5.8,5.8,60,0.00,CLR,SCT,0.00,WeatherDisplay:10.37,2013-02-21 12:04:00,
2013-02-21 07:09:00,26.8,14.8,30.12,NNE,23,5.8,5.8,60,0.00,CLR,SCT,0.00,WeatherDisplay:10.37,2013-02-21 12:09:00,
2013-02-21 07:14:00,26.9,14.9,30.12,ENE,62,5.8,5.8,60,0.00,CLR,SCT,0.00,WeatherDisplay:10.37,2013-02-21 12:14:00,
2013-02-21 07:19:00,26.7,14.7,30.12,ENE,73,6.9,6.9,60,0.00,CLR,SCT,0.00,WeatherDisplay:10.37,2013-02-21 12:19:00,
2013-02-21 07:24:00,26.7,14.3,30.12,NNW,340,6.9,6.9,59,0.00,CLR,SCT,0.00,WeatherDisplay:10.37,2013-02-21 12:24:00,
2013-02-21 07:29:00,26.9,14.5,30.13,North,10,6.9,6.9,59,0.00,CLR,SCT,0.00,WeatherDisplay:10.37,2013-02-21 12:29:00,
2013-02-21 07:34:00,26.9,14.5,30.13,ENE,72,5.8,5.8,59,0.00,CLR,SCT,0.00,WeatherDisplay:10.37,2013-02-21 12:34:00,
2013-02-21 07:39:00,27.1,15.0,30.13,East,92,2.3,2.3,60,0.00,CLR,SCT,0.00,WeatherDisplay:10.37,2013-02-21 12:39:00,
2013-02-21 07:44:00,27.2,14.8,30.14,North,7,5.8,5.8,59,0.00,CLR,SCT,0.00,WeatherDisplay:10.37,2013-02-21 12:44:00,
2013-02-21 07:49:00,27.5,15.0,30.14,NE,41,4.6,4.6,59,0.00,CLR,SCT,0.00,WeatherDisplay:10.37,2013-02-21 12:49:00,
2013-02-21 07:54:00,27.8,15.3,30.13,ENE,65,3.5,3.5,59,0.00,CLR,SCT,0.00,WeatherDisplay:10.37,2013-02-21 12:54:00,
2013-02-21 07:59:00,28.3,15.4,30.14,East,88,3.5,3.5,58,0.00,CLR,SCT,0.00,WeatherDisplay:10.37,2013-02-21 12:59:00,
2013-02-21 08:04:00,29.0,16.1,30.14,NE,56,6.9,6.9,58,0.00,CLR,SCT,0.00,WeatherDisplay:10.37,2013-02-21 13:04:00,
2013-02-21 08:09:00,29.5,16.1,30.15,NNW,344,4.6,4.6,57,0.00,CLR,SCT,0.00,WeatherDisplay:10.37,2013-02-21 13:09:00,
2013-02-21 08:14:00,29.8,16.0,30.15,ENE,72,3.5,3.5,56,0.00,CLR,SCT,0.00,WeatherDisplay:10.37,2013-02-21 13:14:00,
2013-02-21 08:19:00,30.6,16.3,30.15,NNW,340,6.1,6.1,55,0.00,CLR,SCT,0.00,WeatherDisplay:10.37,2013-02-21 13:19:00,
2013-02-21 08:24:00,31.0,16.3,30.15,WNW,301,5.8,5.8,54,0.00,CLR,SCT,0.00,WeatherDisplay:10.37,2013-02-21 13:24:00,
2013-02-21 08:29:00,31.3,16.1,30.15,NNE,24,10.4,10.4,53,0.00,CLR,SCT,0.00,WeatherDisplay:10.37,2013-02-21 13:29:00,
2013-02-21 08:34:00,31.4,15.8,30.15,NNW,336,3.5,3.5,52,0.00,CLR,SCT,0.00,WeatherDisplay:10.37,2013-02-21 13:34:00,
2013-02-21 08:39:00,31.5,15.9,30.15,ENE,71,0.0,0.0,52,0.00,CLR,SCT,0.00,WeatherDisplay:10.37,2013-02-21 13:39:00,
2013-02-21 08:44:00,31.6,16.0,30.15,NNE,13,7.8,7.8,52,0.00,CLR,SCT,0.00,WeatherDisplay:10.37,2013-02-21 13:44:00,
2013-02-21 08:49:00,31.8,16.2,30.15,NNE,13,5.8,5.8,52,0.00,CLR,SCT,0.00,WeatherDisplay:10.37,2013-02-21 13:49:00,
2013-02-21 08:54:00,31.9,16.2,30.15,WNW,294,3.5,3.5,52,0.00,CLR,SCT,0.00,WeatherDisplay:10.37,2013-02-21 13:54:00,
2013-02-21 08:59:00,32.1,16.4,30.15,NNW,343,11.5,11.5,52,0.00,CLR,SCT,0.00,WeatherDisplay:10.37,2013-02-21 13:59:00,
2013-02-21 09:04:00,32.3,16.2,30.16,ENE,65,4.6,4.6,51,0.00,CLR,SCT,0.00,WeatherDisplay:10.37,2013-02-21 14:04:00,
2013-02-21 09:09:00,32.5,16.4,30.16,NNE,16,4.6,4.6,51,0.00,CLR,SCT,0.00,WeatherDisplay:10.37,2013-02-21 14:09:00,
2013-02-21 09:14:00,32.8,16.6,30.16,East,89,4.6,4.6,51,0.00,CLR,SCT,0.00,WeatherDisplay:10.37,2013-02-21 14:14:00,
2013-02-21 09:19:00,33.1,16.9,30.16,West,277,10.4,10.4,51,0.00,CLR,SCT,0.00,WeatherDisplay:10.37,2013-02-21 14:19:00,
2013-02-21 09:24:00,33.5,16.8,30.16,NNW,347,8.1,8.1,50,0.00,CLR,SCT,0.00,WeatherDisplay:10.37,2013-02-21 14:24:00,
2013-02-21 09:29:00,33.6,16.9,30.15,WNW,295,2.3,2.3,50,0.00,CLR,SCT,0.00,WeatherDisplay:10.37,2013-02-21 14:29:00,
2013-02-21 09:34:00,34.0,17.3,30.15,NE,49,4.6,4.6,50,0.00,CLR,SCT,0.00,WeatherDisplay:10.37,2013-02-21 14:34:00,
2013-02-21 09:39:00,34.3,17.6,30.16,NNE,30,5.8,5.8,50,0.00,CLR,SCT,0.00,WeatherDisplay:10.37,2013-02-21 14:39:00,
2013-02-21 09:44:00,34.8,17.6,30.16,NW,304,9.2,9.2,49,0.00,CLR,SCT,0.00,WeatherDisplay:10.37,2013-02-21 14:44:00,
2013-02-21 09:49:00,34.9,17.7,30.16,North,356,4.6,4.6,49,0.00,CLR,SCT,0.00,WeatherDisplay:10.37,2013-02-21 14:49:00,
2013-02-21 09:54:00,35.5,18.2,30.16,NNE,31,8.1,8.1,49,0.00,CLR,SCT,0.00,WeatherDisplay:10.37,2013-02-21 14:54:00,
2013-02-21 09:59:00,35.8,18.0,30.16,NNW,328,4.6,4.6,48,0.00,CLR,SCT,0.00,WeatherDisplay:10.37,2013-02-21 14:59:00,
2013-02-21 10:04:00,36.2,18.4,30.17,NW,304,10.4,10.4,48,0.00,CLR,SCT,0.00,WeatherDisplay:10.37,2013-02-21 15:04:00,
2013-02-21 10:09:00,36.6,18.7,30.17,North,0,9.2,9.2,48,0.00,CLR,SCT,0.00,WeatherDisplay:10.37,2013-02-21 15:09:00,
2013-02-21 10:14:00,37.1,18.7,30.16,NNW,336,4.6,4.6,47,0.00,CLR,SCT,0.00,WeatherDisplay:10.37,2013-02-21 15:14:00,
2013-02-21 10:19:00,37.7,19.3,30.17,NE,37,4.6,4.6,47,0.00,CLR,SCT,0.00,WeatherDisplay:10.37,2013-02-21 15:19:00,
2013-02-21 10:24:00,38.4,19.4,30.16,NW,316,6.9,6.9,46,0.00,CLR,SCT,0.00,WeatherDisplay:10.37,2013-02-21 15:24:00,
2013-02-21 10:29:00,38.8,19.2,30.16,North,10,4.6,4.6,45,0.00,CLR,SCT,0.00,WeatherDisplay:10.37,2013-02-21 15:29:00,
2013-02-21 10:34:00,39.1,19.0,30.16,North,4,6.9,6.9,44,0.00,CLR,SCT,0.00,WeatherDisplay:10.37,2013-02-21 15:34:00,
2013-02-21 10:39:00,39.7,20.1,30.16,North,359,3.5,3.5,45,0.00,CLR,SCT,0.00,WeatherDisplay:10.37,2013-02-21 15:39:00,
2013-02-21 10:44:00,40.2,20.0,30.16,NNW,328,5.8,5.8,44,0.00,CLR,SCT,0.00,WeatherDisplay:10.37,2013-02-21 15:44:00,
2013-02-21 10:49:00,40.8,20.5,30.16,West,268,4.6,4.6,44,0.00,CLR,SCT,0.00,WeatherDisplay:10.37,2013-02-21 15:49:00,
2013-02-21 10:54:00,40.9,20.1,30.16,NNE,18,4.6,4.6,43,0.00,CLR,SCT,0.00,WeatherDisplay:10.37,2013-02-21 15:54:00,
2013-02-21 10:59:00,41.2,20.9,30.16,NNW,335,9.2,9.2,44,0.00,CLR,SCT,0.00,WeatherDisplay:10.37,2013-02-21 15:59:00,
2013-02-21 11:04:00,42.0,21.1,30.16,NNE,27,6.9,6.9,43,0.00,CLR,SCT,0.00,WeatherDisplay:10.37,2013-02-21 16:04:00,
2013-02-21 11:09:00,42.4,20.9,30.16,NW,326,11.5,11.5,42,0.00,CLR,SCT,0.00,WeatherDisplay:10.37,2013-02-21 16:09:00,
2013-02-21 11:14:00,42.7,21.2,30.16,NW,318,6.9,6.9,42,0.00,CLR,SCT,0.00,WeatherDisplay:10.37,2013-02-21 16:14:00,
2013-02-21 11:19:00,43.3,21.7,30.16,North,8,6.8,6.8,42,0.00,CLR,SCT,0.00,WeatherDisplay:10.37,2013-02-21 16:19:00,
2013-02-21 11:24:00,43.9,22.3,30.16,WNW,302,3.5,3.5,42,0.00,CLR,SCT,0.00,WeatherDisplay:10.37,2013-02-21 16:24:00,
2013-02-21 11:29:00,44.5,21.6,30.16,NW,325,6.6,6.6,40,0.00,CLR,SCT,0.00,WeatherDisplay:10.37,2013-02-21 16:29:00,
2013-02-21 11:34:00,44.8,21.9,30.16,NE,40,5.8,5.8,40,0.00,CLR,SCT,0.00,WeatherDisplay:10.37,2013-02-21 16:34:00,
2013-02-21 11:39:00,45.0,21.5,30.16,NNE,14,6.9,6.9,39,0.00,CLR,SCT,0.00,WeatherDisplay:10.37,2013-02-21 16:39:00,
2013-02-21 11:44:00,45.4,21.9,30.16,East,100,5.8,5.8,39,0.00,CLR,SCT,0.00,WeatherDisplay:10.37,2013-02-21 16:44:00,
2013-02-21 11:49:00,45.6,22.0,30.15,East,83,6.9,6.9,39,0.00,CLR,SCT,0.00,WeatherDisplay:10.37,2013-02-21 16:49:00,
2013-02-21 11:54:00,46.0,22.4,30.15,NNE,18,4.8,4.8,39,0.00,CLR,SCT,0.00,WeatherDisplay:10.37,2013-02-21 16:54:00,
2013-02-21 11:59:00,46.7,22.4,30.15,North,349,7.2,7.2,38,0.00,CLR,SCT,0.00,WeatherDisplay:10.37,2013-02-21 16:59:00,
2013-02-21 12:04:00,47.0,22.7,30.15,ENE,58,6.9,6.9,38,0.00,CLR,SCT,0.00,WeatherDisplay:10.37,2013-02-21 17:04:00,
2013-02-21 12:09:00,47.5,23.1,30.15,NW,320,6.9,6.9,38,0.00,CLR,SCT,0.00,WeatherDisplay:10.37,2013-02-21 17:09:00,
2013-02-21 12:14:00,48.0,22.9,30.15,NE,42,8.1,8.1,37,0.00,CLR,SCT,0.00,WeatherDisplay:10.37,2013-02-21 17:14:00,
2013-02-21 12:19:00,48.0,22.9,30.15,WNW,299,4.6,4.6,37,0.00,CLR,SCT,0.00,WeatherDisplay:10.37,2013-02-21 17:19:00,
2013-02-21 12:24:00,48.6,22.8,30.15,NW,318,5.8,5.8,36,0.00,CLR,SCT,0.00,WeatherDisplay:10.37,2013-02-21 17:24:00,
2013-02-21 12:29:00,49.3,22.8,30.14,North,0,6.9,6.9,35,0.00,CLR,SCT,0.00,WeatherDisplay:10.37,2013-02-21 17:29:00,
2013-02-21 12:34:00,49.5,22.3,30.14,WNW,292,4.6,4.6,34,0.00,CLR,SCT,0.00,WeatherDisplay:10.37,2013-02-21 17:34:00,
2013-02-21 12:39:00,49.8,23.2,30.14,NNW,329,10.4,10.4,35,0.00,CLR,SCT,0.00,WeatherDisplay:10.37,2013-02-21 17:39:00,
2013-02-21 12:44:00,50.1,23.5,30.14,NNW,332,5.8,5.8,35,0.00,CLR,SCT,0.00,WeatherDisplay:10.37,2013-02-21 17:44:00,
2013-02-21 12:49:00,50.7,24.0,30.14,NNW,347,5.8,5.8,35,0.00,CLR,SCT,0.00,WeatherDisplay:10.37,2013-02-21 17:49:00,
2013-02-21 12:54:00,51.5,24.0,30.13,NE,34,4.6,4.6,34,0.00,CLR,SCT,0.00,WeatherDisplay:10.37,2013-02-21 17:54:00,
2013-02-21 12:59:00,51.7,23.5,30.13,West,280,6.9,6.9,33,0.00,CLR,SCT,0.00,WeatherDisplay:10.37,2013-02-21 17:59:00,
2013-02-21 13:04:00,52.1,24.6,30.13,NNE,27,5.8,5.8,34,0.00,CLR,SCT,0.00,WeatherDisplay:10.37,2013-02-21 18:04:00,
2013-02-21 13:09:00,52.6,24.3,30.13,ENE,64,11.9,11.9,33,0.00,CLR,SCT,0.00,WeatherDisplay:10.37,2013-02-21 18:09:00,
2013-02-21 13:14:00,52.6,23.5,30.13,NW,313,0.0,0.0,32,0.00,CLR,SCT,0.00,WeatherDisplay:10.37,2013-02-21 18:14:00,
2013-02-21 13:19:00,52.7,22.9,30.12,North,359,8.3,8.3,31,0.00,CLR,SCT,0.00,WeatherDisplay:10.37,2013-02-21 18:19:00,
2013-02-21 13:24:00,52.7,23.6,30.12,ENE,72,4.6,4.6,32,0.00,CLR,SCT,0.00,WeatherDisplay:10.37,2013-02-21 18:24:00,
2013-02-21 13:29:00,52.9,24.5,30.11,East,100,5.8,5.8,33,0.00,CLR,SCT,0.00,WeatherDisplay:10.37,2013-02-21 18:29:00,
2013-02-21 13:34:00,53.3,23.4,30.11,SSW,202,4.6,4.6,31,0.00,CLR,SCT,0.00,WeatherDisplay:10.37,2013-02-21 18:34:00,
2013-02-21 13:39:00,53.3,23.4,30.10,NNE,28,0.0,0.0,31,0.00,CLR,SCT,0.00,WeatherDisplay:10.37,2013-02-21 18:39:00,
2013-02-21 13:44:00,53.9,23.1,30.10,SSE,155,6.9,6.9,30,0.00,CLR,SCT,0.00,WeatherDisplay:10.37,2013-02-21 18:44:00,
2013-02-21 13:49:00,53.8,23.8,30.10,North,353,4.6,4.6,31,0.00,CLR,SCT,0.00,WeatherDisplay:10.37,2013-02-21 18:49:00,
2013-02-21 13:54:00,54.3,23.5,30.09,NNW,347,5.0,5.0,30,0.00,CLR,SCT,0.00,WeatherDisplay:10.37,2013-02-21 18:54:00,
2013-02-21 13:59:00,54.7,23.8,30.09,NNW,343,3.5,3.5,30,0.00,CLR,SCT,0.00,WeatherDisplay:10.37,2013-02-21 18:59:00,
2013-02-21 14:04:00,55.4,23.6,30.09,NE,38,4.6,4.6,29,0.00,CLR,SCT,0.00,WeatherDisplay:10.37,2013-02-21 19:04:00,
2013-02-21 14:09:00,55.9,24.1,30.09,West,267,6.9,6.9,29,0.00,CLR,SCT,0.00,WeatherDisplay:10.37,2013-02-21 19:09:00,
2013-02-21 14:14:00,56.1,23.4,30.09,SSW,210,4.6,4.6,28,0.00,CLR,SCT,0.00,WeatherDisplay:10.37,2013-02-21 19:14:00,
2013-02-21 14:19:00,55.9,23.2,30.09,WNW,288,0.5,0.5,28,0.00,CLR,SCT,0.00,WeatherDisplay:10.37,2013-02-21 19:19:00,
2013-02-21 14:24:00,56.2,22.6,30.10,SSE,157,5.8,5.8,27,0.00,CLR,SCT,0.00,WeatherDisplay:10.37,2013-02-21 19:24:00,
2013-02-21 14:29:00,56.2,23.5,30.10,NNE,23,7.0,7.0,28,0.00,CLR,SCT,0.00,WeatherDisplay:10.37,2013-02-21 19:29:00,
2013-02-21 14:34:00,56.1,21.6,30.08,South,181,6.9,6.9,26,0.00,CLR,SCT,0.00,WeatherDisplay:10.37,2013-02-21 19:34:00,
2013-02-21 14:39:00,56.4,23.7,30.09,NW,323,5.8,5.8,28,0.00,CLR,SCT,0.00,WeatherDisplay:10.37,2013-02-21 19:39:00,
2013-02-21 14:44:00,57.0,22.4,30.08,NE,56,8.1,8.1,26,0.00,CLR,SCT,0.00,WeatherDisplay:10.37,2013-02-21 19:44:00,
2013-02-21 14:49:00,56.8,22.2,30.07,NE,40,6.9,6.9,26,0.00,CLR,SCT,0.00,WeatherDisplay:10.37,2013-02-21 19:49:00,
2013-02-21 14:54:00,57.2,23.5,30.08,NE,54,4.6,4.6,27,0.00,CLR,SCT,0.00,WeatherDisplay:10.37,2013-02-21 19:54:00,
2013-02-21 14:59:00,57.6,22.9,30.08,NW,304,2.3,2.3,26,0.00,CLR,SCT,0.00,WeatherDisplay:10.37,2013-02-21 19:59:00,
2013-02-21 15:04:00,58.3,22.6,30.08,NE,54,6.9,6.9,25,0.00,CLR,SCT,0.00,WeatherDisplay:10.37,2013-02-21 20:04:00,
2013-02-21 15:09:00,58.0,22.3,30.08,NNE,32,3.5,3.5,25,0.00,CLR,SCT,0.00,WeatherDisplay:10.37,2013-02-21 20:09:00,
2013-02-21 15:14:00,58.1,23.3,30.08,NNE,27,3.5,3.5,26,0.00,CLR,SCT,0.00,WeatherDisplay:10.37,2013-02-21 20:14:00,
2013-02-21 15:19:00,58.3,22.6,30.09,NNE,14,6.9,6.9,25,0.00,CLR,SCT,0.00,WeatherDisplay:10.37,2013-02-21 20:19:00,
2013-02-21 15:24:00,58.0,22.3,30.09,ENE,61,4.6,4.6,25,0.00,CLR,SCT,0.00,WeatherDisplay:10.37,2013-02-21 20:24:00,
2013-02-21 15:29:00,57.6,22.0,30.09,North,6,3.5,3.5,25,0.00,CLR,SCT,0.00,WeatherDisplay:10.37,2013-02-21 20:29:00,
2013-02-21 15:34:00,57.9,22.2,30.10,NNE,23,2.3,0.0,25,0.00,CLR,SCT,0.00,WeatherDisplay:10.37,2013-02-21 20:34:00,
2013-02-21 15:39:00,57.7,21.1,30.10,WNW,285,1.6,1.6,24,0.00,CLR,SCT,0.00,WeatherDisplay:10.37,2013-02-21 20:39:00,
2013-02-21 15:44:00,57.0,22.4,30.10,WSW,248,2.3,2.3,26,0.00,CLR,SCT,0.00,WeatherDisplay:10.37,2013-02-21 20:44:00,
2013-02-21 15:49:00,56.6,22.1,30.10,ENE,76,0.0,0.0,26,0.00,CLR,SCT,0.00,WeatherDisplay:10.37,2013-02-21 20:49:00,
2013-02-21 15:54:00,56.6,22.1,30.10,South,169,1.1,1.1,26,0.00,CLR,SCT,0.00,WeatherDisplay:10.37,2013-02-21 20:54:00,
2013-02-21 15:59:00,56.4,21.9,30.10,WNW,284,6.9,6.9,26,0.00,CLR,SCT,0.00,WeatherDisplay:10.37,2013-02-21 20:59:00,
2013-02-21 16:04:00,56.4,21.9,30.09,NNE,32,4.6,4.6,26,0.00,CLR,SCT,0.00,WeatherDisplay:10.37,2013-02-21 21:04:00,
2013-02-21 16:10:00,56.6,22.1,30.09,NE,44,2.3,2.3,26,0.00,CLR,SCT,0.00,WeatherDisplay:10.37,2013-02-21 21:10:00,
2013-02-21 16:15:00,56.4,21.9,30.09,East,100,3.5,3.5,26,0.00,CLR,SCT,0.00,WeatherDisplay:10.37,2013-02-21 21:15:00,
2013-02-21 16:20:00,55.9,21.5,30.09,SW,236,3.5,3.5,26,0.00,CLR,SCT,0.00,WeatherDisplay:10.37,2013-02-21 21:20:00,
2013-02-21 16:25:00,55.3,21.8,30.09,ENE,66,3.5,3.5,27,0.00,CLR,SCT,0.00,WeatherDisplay:10.37,2013-02-21 21:25:00,
2013-02-21 16:30:00,54.8,21.4,30.08,NE,49,3.1,3.1,27,0.00,CLR,SCT,0.00,WeatherDisplay:10.37,2013-02-21 21:30:00,
2013-02-21 16:35:00,54.6,21.2,30.09,NNE,24,1.1,0.0,27,0.00,CLR,SCT,0.00,WeatherDisplay:10.37,2013-02-21 21:35:00,
2013-02-21 16:40:00,54.5,21.2,30.09,WNW,282,3.5,3.5,27,0.00,CLR,SCT,0.00,WeatherDisplay:10.37,2013-02-21 21:40:00,
2013-02-21 16:45:00,54.0,20.7,30.10,NE,35,2.3,2.3,27,0.00,CLR,SCT,0.00,WeatherDisplay:10.37,2013-02-21 21:45:00,
2013-02-21 16:50:00,53.5,21.2,30.11,NNE,14,0.7,1.0,28,0.00,CLR,SCT,0.00,WeatherDisplay:10.37,2013-02-21 21:50:00,
2013-02-21 16:55:00,53.0,20.7,30.12,NNE,29,2.0,7.0,28,0.00,CLR,SCT,0.00,WeatherDisplay:10.37,2013-02-21 21:55:00,
2013-02-21 17:00:00,52.5,20.3,30.12,ENE,65,0.0,0.0,28,0.00,CLR,SCT,0.00,WeatherDisplay:10.37,2013-02-21 22:00:00,
2013-02-21 17:05:00,52.1,20.8,30.12,ENE,65,0.0,0.0,29,0.00,CLR,SCT,0.00,WeatherDisplay:10.37,2013-02-21 22:05:00,
2013-02-21 17:10:00,51.8,20.5,30.12,WSW,254,2.3,0.0,29,0.00,CLR,SCT,0.00,WeatherDisplay:10.37,2013-02-21 22:10:00,
2013-02-21 17:15:00,51.7,21.2,30.12,WSW,254,0.0,0.0,30,0.00,CLR,SCT,0.00,WeatherDisplay:10.37,2013-02-21 22:15:00,
2013-02-21 17:20:00,51.7,20.4,30.12,WSW,254,0.0,0.0,29,0.00,CLR,SCT,0.00,WeatherDisplay:10.37,2013-02-21 22:20:00,
2013-02-21 17:25:00,51.6,20.3,30.13,WSW,254,0.0,0.0,29,0.00,CLR,SCT,0.00,WeatherDisplay:10.37,2013-02-21 22:25:00,
2013-02-21 17:30:00,51.3,20.9,30.12,WSW,254,0.0,0.0,30,0.00,CLR,SCT,0.00,WeatherDisplay:10.37,2013-02-21 22:30:00,
2013-02-21 17:35:00,51.0,20.6,30.12,WSW,254,0.0,0.0,30,0.00,CLR,SCT,0.00,WeatherDisplay:10.37,2013-02-21 22:35:00,
2013-02-21 17:40:00,50.8,20.5,30.13,WSW,254,0.0,0.0,30,0.00,CLR,SCT,0.00,WeatherDisplay:10.37,2013-02-21 22:40:00,
2013-02-21 17:45:00,50.7,19.6,30.13,NE,51,0.0,0.0,29,0.00,CLR,SCT,0.00,WeatherDisplay:10.37,2013-02-21 22:45:00,
2013-02-21 17:50:00,50.5,20.2,30.13,NE,51,0.0,0.0,30,0.00,CLR,SCT,0.00,WeatherDisplay:10.37,2013-02-21 22:50:00,
2013-02-21 17:55:00,50.2,19.9,30.13,NE,38,0.0,0.0,30,0.00,CLR,SCT,0.00,WeatherDisplay:10.37,2013-02-21 22:55:00,
2013-02-21 18:00:00,49.8,19.6,30.14,NE,38,0.0,0.0,30,0.00,CLR,SCT,0.00,WeatherDisplay:10.37,2013-02-21 23:00:00,
2013-02-21 18:05:00,49.5,19.3,30.14,NE,38,0.0,0.0,30,0.00,FEW,SCT,0.00,WeatherDisplay:10.37,2013-02-21 23:05:00,
2013-02-21 18:10:00,49.2,19.0,30.14,NE,56,0.0,0.0,30,0.00,FEW,SCT,0.00,WeatherDisplay:10.37,2013-02-21 23:10:00,
2013-02-21 18:15:00,48.8,19.5,30.15,East,92,5.8,5.8,31,0.00,FEW,SCT,0.00,WeatherDisplay:10.37,2013-02-21 23:15:00,
2013-02-21 18:20:00,48.4,19.1,30.14,ENE,64,1.1,1.4,31,0.00,FEW,SCT,0.00,WeatherDisplay:10.37,2013-02-21 23:20:00,
2013-02-21 18:25:00,47.9,19.4,30.15,ENE,69,6.9,6.9,32,0.00,FEW,SCT,0.00,WeatherDisplay:10.37,2013-02-21 23:25:00,
2013-02-21 18:30:00,47.4,19.7,30.14,ENE,64,3.5,3.5,33,0.00,FEW,SCT,0.00,WeatherDisplay:10.37,2013-02-21 23:30:00,
2013-02-21 18:35:00,47.1,19.4,30.14,ESE,120,5.8,5.8,33,0.00,FEW,SCT,0.00,WeatherDisplay:10.37,2013-02-21 23:35:00,
2013-02-21 18:40:00,46.8,19.9,30.14,ENE,61,4.6,4.6,34,0.00,FEW,SCT,0.00,WeatherDisplay:10.37,2013-02-21 23:40:00,
2013-02-21 18:45:00,46.6,19.7,30.14,NE,48,0.0,0.0,34,0.00,FEW,SCT,0.00,WeatherDisplay:10.37,2013-02-21 23:45:00,
2013-02-21 18:50:00,46.2,19.3,30.14,ENE,73,0.0,0.0,34,0.00,FEW,SCT,0.00,WeatherDisplay:10.37,2013-02-21 23:50:00,
2013-02-21 18:55:00,46.0,19.2,30.14,ENE,73,0.0,0.0,34,0.00,FEW,SCT,0.00,WeatherDisplay:10.37,2013-02-21 23:55:00,
2013-02-21 19:00:00,45.7,19.6,30.14,SE,137,2.3,2.3,35,0.00,FEW,SCT,0.00,WeatherDisplay:10.37,2013-02-22 00:00:00,
2013-02-21 19:05:00,45.7,19.6,30.15,ENE,72,3.5,3.5,35,0.00,FEW,SCT,0.00,WeatherDisplay:10.37,2013-02-22 00:05:00,
2013-02-21 19:10:00,45.7,20.2,30.15,ENE,64,0.0,0.0,36,0.00,FEW,SCT,0.00,WeatherDisplay:10.37,2013-02-22 00:10:00,
2013-02-21 19:15:00,45.5,20.1,30.15,ENE,64,2.3,2.3,36,0.00,FEW,SCT,0.00,WeatherDisplay:10.37,2013-02-22 00:15:00,
2013-02-21 19:20:00,45.2,19.8,30.15,NE,41,2.3,2.3,36,0.00,FEW,SCT,0.00,WeatherDisplay:10.37,2013-02-22 00:20:00,
2013-02-21 19:25:00,45.3,19.9,30.15,ESE,102,4.6,4.6,36,0.00,FEW,SCT,0.00,WeatherDisplay:10.37,2013-02-22 00:25:00,
2013-02-21 19:30:00,45.0,19.6,30.15,East,99,3.5,3.5,36,0.00,FEW,SCT,0.00,WeatherDisplay:10.37,2013-02-22 00:30:00,
2013-02-21 19:35:00,44.9,19.5,30.15,ENE,62,0.0,0.0,36,0.00,FEW,SCT,0.00,WeatherDisplay:10.37,2013-02-22 00:35:00,
2013-02-21 19:40:00,45.1,19.7,30.15,NE,52,0.0,0.0,36,0.00,FEW,SCT,0.00,WeatherDisplay:10.37,2013-02-22 00:40:00,
2013-02-21 19:45:00,44.9,19.5,30.16,East,88,4.6,4.6,36,0.00,FEW,SCT,0.00,WeatherDisplay:10.37,2013-02-22 00:45:00,
2013-02-21 19:50:00,44.8,19.4,30.16,ENE,75,2.3,2.3,36,0.00,FEW,SCT,0.00,WeatherDisplay:10.37,2013-02-22 00:50:00,
2013-02-21 19:55:00,44.8,19.4,30.16,ENE,61,0.0,0.0,36,0.00,FEW,SCT,0.00,WeatherDisplay:10.37,2013-02-22 00:55:00,
2013-02-21 20:00:00,44.9,19.5,30.16,ENE,61,0.0,0.0,36,0.00,FEW,SCT,0.00,WeatherDisplay:10.37,2013-02-22 01:00:00,
2013-02-21 20:05:00,44.7,20.0,30.16,ENE,61,0.0,0.0,37,0.00,CLR,SCT,0.00,WeatherDisplay:10.37,2013-02-22 01:05:00,
2013-02-21 20:10:00,44.6,19.9,30.16,ENE,61,0.0,0.0,37,0.00,CLR,SCT,0.00,WeatherDisplay:10.37,2013-02-22 01:10:00,
2013-02-21 20:15:00,44.5,19.8,30.16,ENE,61,0.0,0.0,37,0.00,CLR,SCT,0.00,WeatherDisplay:10.37,2013-02-22 01:15:00,
2013-02-21 20:20:00,44.3,19.6,30.17,ENE,61,0.0,0.0,37,0.00,CLR,SCT,0.00,WeatherDisplay:10.37,2013-02-22 01:20:00,
2013-02-21 20:25:00,44.1,19.5,30.16,ENE,61,0.0,0.0,37,0.00,CLR,SCT,0.00,WeatherDisplay:10.37,2013-02-22 01:25:00,
2013-02-21 20:30:00,44.1,19.5,30.16,ENE,61,0.0,0.0,37,0.00,CLR,SCT,0.00,WeatherDisplay:10.37,2013-02-22 01:30:00,
2013-02-21 20:35:00,44.1,19.5,30.16,ENE,61,0.0,0.0,37,0.00,CLR,SCT,0.00,WeatherDisplay:10.37,2013-02-22 01:35:00,
2013-02-21 20:40:00,44.0,20.0,30.16,ENE,61,1.1,1.1,38,0.00,CLR,SCT,0.00,WeatherDisplay:10.37,2013-02-22 01:40:00,
2013-02-21 20:45:00,44.0,20.0,30.16,East,89,2.3,2.3,38,0.00,CLR,SCT,0.00,WeatherDisplay:10.37,2013-02-22 01:45:00,
2013-02-21 20:50:00,44.1,20.1,30.16,East,88,2.3,2.3,38,0.00,CLR,SCT,0.00,WeatherDisplay:10.37,2013-02-22 01:50:00,
2013-02-21 20:55:00,44.0,20.0,30.16,NE,45,3.5,3.5,38,0.00,CLR,SCT,0.00,WeatherDisplay:10.37,2013-02-22 01:55:00,
2013-02-21 21:00:00,43.9,19.9,30.16,ENE,76,2.3,2.3,38,0.00,CLR,SCT,0.00,WeatherDisplay:10.37,2013-02-22 02:00:00,
2013-02-21 21:05:00,43.8,19.8,30.17,ENE,61,0.0,0.0,38,0.00,CLR,SCT,0.00,WeatherDisplay:10.37,2013-02-22 02:05:00,
2013-02-21 21:10:00,43.5,19.5,30.17,South,179,3.5,3.5,38,0.00,CLR,SCT,0.00,WeatherDisplay:10.37,2013-02-22 02:10:00,
2013-02-21 21:15:00,43.2,19.9,30.17,South,179,0.0,0.0,39,0.00,CLR,SCT,0.00,WeatherDisplay:10.37,2013-02-22 02:15:00,
2013-02-21 21:20:00,43.1,19.8,30.17,South,179,0.0,0.0,39,0.00,CLR,SCT,0.00,WeatherDisplay:10.37,2013-02-22 02:20:00,
2013-02-21 21:25:00,43.0,19.7,30.17,SSE,151,3.5,3.5,39,0.00,CLR,SCT,0.00,WeatherDisplay:10.37,2013-02-22 02:25:00,
2013-02-21 21:30:00,42.6,19.3,30.18,South,171,6.9,6.9,39,0.00,CLR,SCT,0.00,WeatherDisplay:10.37,2013-02-22 02:30:00,
2013-02-21 21:35:00,42.6,19.9,30.18,SSE,152,5.3,5.3,40,0.00,CLR,SCT,0.00,WeatherDisplay:10.37,2013-02-22 02:35:00,
2013-02-21 21:40:00,42.1,19.5,30.18,SSE,150,6.9,6.9,40,0.00,CLR,SCT,0.00,WeatherDisplay:10.37,2013-02-22 02:40:00,
2013-02-21 21:45:00,41.9,19.3,30.18,SSE,155,4.6,4.6,40,0.00,CLR,SCT,0.00,WeatherDisplay:10.37,2013-02-22 02:45:00,
2013-02-21 21:50:00,41.7,19.1,30.18,SE,138,5.8,5.8,40,0.00,CLR,SCT,0.00,WeatherDisplay:10.37,2013-02-22 02:50:00,
2013-02-21 21:55:00,41.8,19.2,30.18,ESE,102,4.6,4.6,40,0.00,CLR,SCT,0.00,WeatherDisplay:10.37,2013-02-22 02:55:00,
2013-02-21 22:00:00,41.7,19.1,30.17,ESE,123,9.2,9.2,40,0.00,CLR,SCT,0.00,WeatherDisplay:10.37,2013-02-22 03:00:00,
2013-02-21 22:05:00,41.6,19.0,30.17,SSE,148,11.5,11.5,40,0.00,FEW,SCT,0.00,WeatherDisplay:10.37,2013-02-22 03:05:00,
2013-02-21 22:10:00,41.4,19.4,30.17,SSE,168,9.2,9.2,41,0.00,FEW,SCT,0.00,WeatherDisplay:10.37,2013-02-22 03:10:00,
2013-02-21 22:15:00,41.2,19.8,30.17,South,171,12.1,12.1,42,0.00,FEW,SCT,0.00,WeatherDisplay:10.37,2013-02-22 03:15:00,
2013-02-21 22:20:00,40.7,19.4,30.18,SSE,162,11.6,11.6,42,0.00,FEW,SCT,0.00,WeatherDisplay:10.37,2013-02-22 03:20:00,
2013-02-21 22:25:00,40.4,19.6,30.18,ENE,75,11.5,11.5,43,0.00,FEW,SCT,0.00,WeatherDisplay:10.37,2013-02-22 03:25:00,
2013-02-21 22:30:00,39.9,19.2,30.19,SE,144,13.8,13.8,43,0.00,FEW,SCT,0.00,WeatherDisplay:10.37,2013-02-22 03:30:00,
2013-02-21 22:35:00,39.7,19.5,30.19,SE,128,12.5,12.5,44,0.00,FEW,SCT,0.00,WeatherDisplay:10.37,2013-02-22 03:35:00,
2013-02-21 22:40:00,39.3,19.2,30.19,South,169,15.0,15.0,44,0.00,FEW,SCT,0.00,WeatherDisplay:10.37,2013-02-22 03:40:00,
2013-02-21 22:45:00,38.9,19.3,30.20,South,172,12.7,12.7,45,0.00,FEW,SCT,0.00,WeatherDisplay:10.37,2013-02-22 03:45:00,
2013-02-21 22:50:00,38.7,19.2,30.21,SSE,164,11.5,11.5,45,0.00,FEW,SCT,0.00,WeatherDisplay:10.37,2013-02-22 03:50:00,
2013-02-21 22:55:00,38.6,19.6,30.21,SE,141,11.5,11.5,46,0.00,FEW,SCT,0.00,WeatherDisplay:10.37,2013-02-22 03:55:00,
2013-02-21 23:00:00,38.7,19.2,30.21,SE,131,13.9,13.9,45,0.00,FEW,SCT,0.00,WeatherDisplay:10.37,2013-02-22 04:00:00,
2013-02-21 23:05:00,38.4,18.9,30.21,SSE,161,15.0,15.0,45,0.00,CLR,SCT,0.00,WeatherDisplay:10.37,2013-02-22 04:05:00,
2013-02-21 23:10:00,38.1,19.1,30.21,SE,144,16.1,16.1,46,0.00,CLR,SCT,0.00,WeatherDisplay:10.37,2013-02-22 04:10:00,
2013-02-21 23:15:00,38.0,19.0,30.22,SE,140,10.4,10.4,46,0.00,CLR,SCT,0.00,WeatherDisplay:10.37,2013-02-22 04:15:00,
2013-02-21 23:20:00,37.9,18.9,30.22,ESE,113,8.1,8.1,46,0.00,CLR,SCT,0.00,WeatherDisplay:10.37,2013-02-22 04:20:00,
2013-02-21 23:25:00,38.0,19.0,30.22,SSE,148,6.9,7.5,46,0.00,CLR,SCT,0.00,WeatherDisplay:10.37,2013-02-22 04:25:00,
2013-02-21 23:30:00,37.9,18.9,30.22,ESE,110,8.1,8.1,46,0.00,CLR,SCT,0.00,WeatherDisplay:10.37,2013-02-22 04:30:00,
2013-02-21 23:35:00,37.9,18.9,30.22,SSE,167,8.1,8.1,46,0.00,CLR,SCT,0.00,WeatherDisplay:10.37,2013-02-22 04:35:00,
2013-02-21 23:40:00,37.8,18.8,30.22,SSE,154,8.1,8.1,46,0.00,CLR,SCT,0.00,WeatherDisplay:10.37,2013-02-22 04:40:00,
2013-02-21 23:45:00,37.8,19.3,30.22,South,172,8.1,8.1,47,0.00,CLR,SCT,0.00,WeatherDisplay:10.37,2013-02-22 04:45:00,
2013-02-21 23:50:00,37.6,19.2,30.23,SE,136,9.2,9.2,47,0.00,CLR,SCT,0.00,WeatherDisplay:10.37,2013-02-22 04:50:00,
2013-02-21 23:55:00,37.7,19.3,30.23,SSE,162,8.9,8.9,47,0.00,CLR,SCT,0.00,WeatherDisplay:10.37,2013-02-22 04:55:00,